Airfield :
LOGIN :

Register | Disclaimer

   EN    FR    IT 

 










Legend :    VFR   Marginal VFR   IFR   Intensive IFR   Very Intensive IFR
Visi :
Ceiling :
>= 8 km
>= 3000ft
5 to 8 km
1000 to 3000 ft
1500m to 5 km
500 to 1000 ft
800 to 1500m
200 to 500 ft
< 800m
< 200 ft
Symbols :   Thunderstorms  Fog  Heavy snow  Heavy precipitations  Wind > 20 kt
SIGMETs :     Misc.  Thunderstorms  Icing  Turbulence  Mountain Waves  Volcanic Ashes






- Airport Elevation : 270 ft
- IATA code : OXF


EGTK - Oxford (Kidlington)

CURRENT METAR :
  • 130750Z 27015KT 9999 SCT026 BKN029 06/03 Q0977

EXPIRED METARs :
  • 130720Z 28014KT 9999 FEW029 BKN032 06/04 Q0977
  • 130650Z 28017KT 9999 SCT023 BKN036 06/04 Q0976
  • 130620Z 28017KT 9999 SCT027 BKN031 06/04 Q0975

TAF TAF EGTK
Valid from the 13 at 06:00 until the 13 at 15:00 UTC


130657Z 1306/1315 28015KT 9999 SCT030
PROB40
TEMPO 1306/1309 28015G25KT BKN015
TEMPO 1309/1315 28015G25KT



MET'MAP, your aeronautical weather chart ! - Copyright ORBIFLY December 2007 - Disclaimer

ORBIFLY MET'MAP TEAM :

Programming & Development : Alexandra Zaïnal
Concept & original design : Baudouin d'Aumeries
Assistance for programming : Marc-Olivier Méhu
Technical & hardware support : Manuel Goepfert

Contact : metmap@orbifly.com




SOURCES & CREDITS :

   NOAA